createdAt,value
2018-09-26T00:00:18.007Z,9.22
2018-09-26T00:01:18.026Z,9.21
2018-09-26T00:02:18.041Z,9.25
2018-09-26T00:03:18.059Z,9.21
2018-09-26T00:04:18.074Z,9.25
2018-09-26T00:05:18.093Z,9.31
2018-09-26T00:06:18.110Z,9.29
2018-09-26T00:07:18.128Z,9.29
2018-09-26T00:08:18.143Z,9.25
2018-09-26T00:09:18.164Z,9.31
2018-09-26T00:10:18.180Z,9.19
2018-09-26T00:11:18.197Z,9.23
2018-09-26T00:12:18.215Z,9.21
2018-09-26T00:13:18.232Z,9.19
2018-09-26T00:14:18.249Z,9.13
2018-09-26T00:15:18.265Z,9.22
2018-09-26T00:16:18.284Z,9.03
2018-09-26T00:17:18.299Z,9.08
2018-09-26T00:18:18.317Z,9.06
2018-09-26T00:19:18.335Z,9.00
2018-09-26T00:20:18.352Z,9.08
2018-09-26T00:21:18.368Z,9.03
2018-09-26T00:22:18.384Z,8.95
2018-09-26T00:23:18.401Z,8.94
2018-09-26T00:24:18.421Z,8.89
2018-09-26T00:25:18.436Z,8.97
2018-09-26T00:26:18.455Z,8.84
2018-09-26T00:27:18.469Z,8.81
2018-09-26T00:28:18.486Z,8.87
2018-09-26T00:29:18.507Z,8.82
2018-09-26T00:30:18.523Z,8.79
2018-09-26T00:31:18.542Z,8.82
2018-09-26T00:32:18.558Z,8.79
2018-09-26T00:33:18.574Z,8.82
2018-09-26T00:34:18.590Z,8.82
2018-09-26T00:35:18.639Z,8.82
2018-09-26T00:36:18.680Z,8.79
2018-09-26T00:37:18.641Z,8.81
2018-09-26T00:38:18.657Z,8.89
2018-09-26T00:39:18.675Z,8.92
2018-09-26T00:40:18.694Z,8.85
2018-09-26T00:41:18.711Z,8.89
2018-09-26T00:42:18.725Z,9.00
2018-09-26T00:43:18.741Z,9.00
2018-09-26T00:44:18.762Z,9.00
2018-09-26T00:45:18.778Z,9.03
2018-09-26T00:46:18.794Z,9.02
2018-09-26T00:47:18.811Z,8.99
2018-09-26T00:48:18.829Z,8.99
2018-09-26T00:49:18.846Z,9.10
2018-09-26T00:50:18.861Z,9.02
2018-09-26T00:51:18.880Z,9.04
2018-09-26T00:52:18.898Z,9.16
2018-09-26T00:53:18.914Z,9.06
2018-09-26T00:54:18.929Z,9.16
2018-09-26T00:55:18.945Z,9.06
2018-09-26T00:56:18.963Z,9.16
2018-09-26T00:57:18.979Z,9.19
2018-09-26T00:58:19.001Z,9.11
2018-09-26T00:59:19.015Z,9.16
2018-09-26T01:00:19.031Z,9.11
2018-09-26T01:01:19.048Z,9.22
2018-09-26T01:02:19.067Z,9.21
2018-09-26T01:03:19.083Z,9.14
2018-09-26T01:04:19.099Z,9.16
2018-09-26T01:05:19.116Z,9.28
2018-09-26T01:06:19.140Z,9.31
2018-09-26T01:07:19.152Z,9.32
2018-09-26T01:08:19.470Z,9.34
2018-09-26T01:09:19.185Z,9.36
2018-09-26T01:10:19.203Z,9.36
2018-09-26T01:11:19.219Z,9.39
2018-09-26T01:12:19.235Z,9.41
2018-09-26T01:13:19.255Z,9.39
2018-09-26T01:14:19.271Z,9.36
2018-09-26T01:15:19.289Z,9.29
2018-09-26T01:16:19.305Z,9.28
2018-09-26T01:17:19.320Z,9.36
2018-09-26T01:18:19.337Z,9.32
2018-09-26T01:19:19.355Z,9.26
2018-09-26T01:20:19.580Z,9.32
2018-09-26T01:21:19.391Z,9.26
2018-09-26T01:22:19.408Z,9.36
2018-09-26T01:23:19.424Z,9.37
2018-09-26T01:24:19.441Z,9.40
2018-09-26T01:25:19.458Z,9.40
2018-09-26T01:26:19.480Z,9.40
2018-09-26T01:27:19.494Z,9.36
2018-09-26T01:28:19.513Z,9.36
2018-09-26T01:29:19.527Z,9.36
2018-09-26T01:30:19.544Z,9.29
2018-09-26T01:31:19.561Z,9.29
2018-09-26T01:32:19.579Z,9.39
2018-09-26T01:33:19.599Z,9.43
2018-09-26T01:34:19.613Z,9.46
2018-09-26T01:35:19.631Z,9.41
2018-09-26T01:36:19.652Z,9.47
2018-09-26T01:37:19.669Z,9.46
2018-09-26T01:38:19.682Z,9.47
2018-09-26T01:39:19.700Z,9.55
2018-09-26T01:40:19.751Z,9.51
2018-09-26T01:41:19.740Z,9.55
2018-09-26T01:42:19.754Z,9.44
2018-09-26T01:43:19.770Z,9.58
2018-09-26T01:44:19.818Z,9.50
2018-09-26T01:45:19.808Z,9.54
2018-09-26T01:46:19.823Z,9.50
2018-09-26T01:47:19.840Z,9.54
2018-09-26T01:48:19.857Z,9.55
2018-09-26T01:49:19.874Z,9.48
2018-09-26T01:50:19.891Z,9.59
2018-09-26T01:51:19.908Z,9.55
2018-09-26T01:52:19.927Z,9.47
2018-09-26T01:53:19.949Z,9.44
2018-09-26T01:54:19.961Z,9.43
2018-09-26T01:55:19.986Z,9.47
2018-09-26T01:56:19.998Z,9.46
2018-09-26T01:57:20.015Z,9.41
2018-09-26T01:58:20.032Z,9.46
2018-09-26T01:59:20.050Z,9.48
2018-09-26T02:00:20.067Z,9.50
2018-09-26T02:01:20.085Z,9.51
2018-09-26T02:02:20.099Z,9.46
2018-09-26T02:03:20.121Z,9.46
2018-09-26T02:04:20.135Z,9.47
2018-09-26T02:05:20.153Z,9.47
2018-09-26T02:06:20.171Z,9.48
2018-09-26T02:07:20.188Z,9.41
2018-09-26T02:08:20.206Z,9.39
2018-09-26T02:09:20.225Z,9.40
2018-09-26T02:10:20.241Z,9.39
2018-09-26T02:11:20.258Z,9.25
2018-09-26T02:12:20.276Z,9.34
2018-09-26T02:13:20.291Z,9.21
2018-09-26T02:14:20.308Z,9.31
2018-09-26T02:15:20.326Z,9.36
2018-09-26T02:16:20.345Z,9.31
2018-09-26T02:17:20.363Z,9.23
2018-09-26T02:18:20.378Z,9.21
2018-09-26T02:19:20.397Z,9.19
2018-09-26T02:20:20.415Z,9.19
2018-09-26T02:21:20.430Z,9.21
2018-09-26T02:22:20.447Z,9.23
2018-09-26T02:23:20.464Z,9.16
2018-09-26T02:24:20.484Z,9.11
2018-09-26T02:25:20.502Z,9.10
2018-09-26T02:26:20.518Z,9.04
2018-09-26T02:27:20.535Z,9.04
2018-09-26T02:28:20.551Z,9.00
2018-09-26T02:29:20.570Z,9.02
2018-09-26T02:30:20.585Z,9.04
2018-09-26T02:31:20.605Z,9.10
2018-09-26T02:32:20.622Z,9.08
2018-09-26T02:33:20.639Z,9.02
2018-09-26T02:35:20.673Z,9.02
2018-09-26T02:36:20.690Z,9.03
2018-09-26T02:37:20.715Z,9.02
2018-09-26T02:38:20.723Z,8.89
2018-09-26T02:39:20.741Z,9.02
2018-09-26T02:40:20.760Z,8.95
2018-09-26T02:41:20.778Z,8.97
2018-09-26T02:42:20.792Z,9.00
2018-09-26T02:43:20.811Z,9.08
2018-09-26T02:44:20.828Z,8.97
2018-09-26T02:45:20.846Z,8.99
2018-09-26T02:46:20.863Z,9.14
2018-09-26T02:47:20.881Z,9.08
2018-09-26T02:48:20.898Z,9.16
2018-09-26T02:49:20.915Z,9.11
2018-09-26T02:50:20.930Z,9.06
2018-09-26T02:51:20.980Z,9.10
2018-09-26T02:52:20.970Z,9.11
2018-09-26T02:53:20.984Z,9.10
2018-09-26T02:54:21.000Z,9.08
2018-09-26T02:55:21.017Z,9.16
2018-09-26T02:56:21.070Z,9.10
2018-09-26T02:57:21.055Z,9.10
2018-09-26T02:58:21.070Z,9.10
2018-09-26T02:59:21.085Z,9.10
2018-09-26T03:00:21.105Z,9.11
2018-09-26T03:01:21.122Z,9.11
2018-09-26T03:02:21.138Z,9.06
2018-09-26T03:03:21.156Z,8.97
2018-09-26T03:04:21.175Z,9.11
2018-09-26T03:05:21.205Z,9.13
2018-09-26T03:06:21.207Z,9.08
2018-09-26T03:07:21.224Z,9.04
2018-09-26T03:08:21.243Z,9.06
2018-09-26T03:09:21.259Z,9.13
2018-09-26T03:10:21.276Z,9.14
2018-09-26T03:11:21.293Z,9.04
2018-09-26T03:12:21.308Z,9.04
2018-09-26T03:13:21.329Z,9.06
2018-09-26T03:14:21.343Z,9.16
2018-09-26T03:15:21.363Z,9.13
2018-09-26T03:16:21.390Z,9.11
2018-09-26T03:17:21.397Z,9.14
2018-09-26T03:18:21.411Z,9.13
2018-09-26T03:19:21.431Z,9.16
2018-09-26T03:20:21.446Z,9.06
2018-09-26T03:21:21.466Z,9.19
2018-09-26T03:22:21.483Z,9.19
2018-09-26T03:23:21.498Z,9.19
2018-09-26T03:24:21.517Z,9.13
2018-09-26T03:25:21.533Z,9.21
2018-09-26T03:26:21.551Z,9.21
2018-09-26T03:27:21.571Z,9.25
2018-09-26T03:28:21.589Z,9.23
2018-09-26T03:29:21.603Z,9.29
2018-09-26T03:30:21.870Z,9.25
2018-09-26T03:31:21.638Z,9.21
2018-09-26T03:32:21.654Z,9.26
2018-09-26T03:33:21.672Z,9.23
2018-09-26T03:34:21.688Z,9.19
2018-09-26T03:35:21.703Z,9.13
2018-09-26T03:36:22.024Z,9.06
2018-09-26T03:37:21.740Z,9.14
2018-09-26T03:38:21.757Z,9.21
2018-09-26T03:39:21.774Z,9.23
2018-09-26T03:40:21.793Z,9.19
2018-09-26T03:41:21.809Z,9.22
2018-09-26T03:42:21.825Z,9.23
2018-09-26T03:43:21.843Z,9.16
2018-09-26T03:44:21.858Z,9.14
2018-09-26T03:45:21.879Z,9.21
2018-09-26T03:46:21.892Z,9.19
2018-09-26T03:47:21.910Z,9.14
2018-09-26T03:48:21.929Z,9.16
2018-09-26T03:49:21.944Z,9.11
2018-09-26T03:50:21.962Z,9.10
2018-09-26T03:51:21.978Z,9.13
2018-09-26T03:52:21.998Z,9.18
2018-09-26T03:53:22.016Z,9.16
2018-09-26T03:54:22.031Z,9.06
2018-09-26T03:55:22.047Z,9.13
2018-09-26T03:56:22.068Z,9.13
2018-09-26T03:57:22.082Z,9.11
2018-09-26T03:58:22.099Z,9.10
2018-09-26T03:59:22.118Z,9.11
2018-09-26T04:00:22.135Z,9.10
2018-09-26T04:01:22.151Z,9.16
2018-09-26T04:02:22.168Z,9.16
2018-09-26T04:03:22.188Z,9.18
2018-09-26T04:04:22.202Z,9.06
2018-09-26T04:05:22.249Z,9.10
2018-09-26T04:06:22.236Z,9.14
2018-09-26T04:07:22.594Z,9.18
2018-09-26T04:08:22.271Z,9.14
2018-09-26T04:09:22.289Z,9.19
2018-09-26T04:10:22.308Z,9.03
2018-09-26T04:11:22.324Z,9.13
2018-09-26T04:12:22.372Z,9.10
2018-09-26T04:13:22.358Z,9.13
2018-09-26T04:14:22.375Z,9.08
2018-09-26T04:15:22.393Z,9.11
2018-09-26T04:16:22.410Z,9.16
2018-09-26T04:17:22.435Z,9.11
2018-09-26T04:18:22.446Z,9.04
2018-09-26T04:19:22.460Z,9.13
2018-09-26T04:20:22.488Z,9.11
2018-09-26T04:21:22.495Z,9.10
2018-09-26T04:22:22.513Z,9.18
2018-09-26T04:23:22.531Z,9.00
2018-09-26T04:24:22.547Z,9.08
2018-09-26T04:25:22.565Z,8.99
2018-09-26T04:26:22.608Z,9.03
2018-09-26T04:27:22.658Z,9.08
2018-09-26T04:28:22.648Z,9.03
2018-09-26T04:29:22.634Z,8.99
2018-09-26T04:30:22.717Z,9.04
2018-09-26T04:31:22.666Z,8.97
2018-09-26T04:32:22.717Z,8.95
2018-09-26T04:33:22.889Z,9.04
2018-09-26T04:34:22.717Z,8.97
2018-09-26T04:35:22.734Z,9.10
2018-09-26T04:36:22.755Z,8.97
2018-09-26T04:37:22.772Z,8.92
2018-09-26T04:38:22.789Z,8.99
2018-09-26T04:39:22.805Z,9.02
2018-09-26T04:40:22.822Z,8.99
2018-09-26T04:41:22.837Z,8.97
2018-09-26T04:42:22.859Z,9.03
2018-09-26T04:43:22.931Z,8.97
2018-09-26T04:44:22.889Z,8.95
2018-09-26T04:45:22.908Z,9.04
2018-09-26T04:46:22.928Z,9.03
2018-09-26T04:47:22.942Z,9.10
2018-09-26T04:48:22.957Z,9.10
2018-09-26T04:49:22.977Z,9.10
2018-09-26T04:50:22.991Z,9.04
2018-09-26T04:51:23.009Z,9.08
2018-09-26T04:52:23.026Z,8.99
2018-09-26T04:53:23.045Z,8.97
2018-09-26T04:54:23.061Z,8.94
2018-09-26T04:55:23.079Z,9.00
2018-09-26T04:56:23.095Z,9.10
2018-09-26T04:57:23.146Z,9.11
2018-09-26T04:58:23.232Z,9.14
2018-09-26T04:59:23.150Z,9.10
2018-09-26T05:00:23.166Z,9.08
2018-09-26T05:01:23.184Z,9.18
2018-09-26T05:02:23.234Z,9.10
2018-09-26T05:03:23.220Z,9.18
2018-09-26T05:04:23.233Z,9.21
2018-09-26T05:05:23.251Z,9.26
2018-09-26T05:06:23.267Z,9.23
2018-09-26T05:07:23.286Z,9.22
2018-09-26T05:08:23.381Z,9.16
2018-09-26T05:09:23.319Z,9.22
2018-09-26T05:10:23.337Z,9.22
2018-09-26T05:11:23.352Z,9.32
2018-09-26T05:12:23.371Z,9.21
2018-09-26T05:13:23.389Z,9.23
2018-09-26T05:14:23.406Z,9.26
2018-09-26T05:15:23.421Z,9.22
2018-09-26T05:16:23.438Z,9.29
2018-09-26T05:17:23.456Z,9.26
2018-09-26T05:18:23.474Z,9.31
2018-09-26T05:19:23.493Z,9.36
2018-09-26T05:20:23.507Z,9.31
2018-09-26T05:21:23.527Z,9.41
2018-09-26T05:22:23.543Z,9.50
2018-09-26T05:23:23.558Z,9.59
2018-09-26T05:24:23.577Z,9.55
2018-09-26T05:25:23.593Z,9.51
2018-09-26T05:26:23.609Z,9.51
2018-09-26T05:27:23.655Z,9.55
2018-09-26T05:28:23.648Z,9.62
2018-09-26T05:29:23.665Z,9.58
2018-09-26T05:30:23.750Z,9.55
2018-09-26T05:31:23.696Z,9.56
2018-09-26T05:32:23.713Z,9.59
2018-09-26T05:33:23.739Z,9.59
2018-09-26T05:34:23.748Z,9.61
2018-09-26T05:35:23.767Z,9.68
2018-09-26T05:36:23.784Z,9.68
2018-09-26T05:37:23.800Z,9.69
2018-09-26T05:38:23.818Z,9.76
2018-09-26T05:39:23.836Z,9.69
2018-09-26T05:40:23.854Z,9.79
2018-09-26T05:41:23.906Z,9.76
2018-09-26T05:42:23.889Z,9.84
2018-09-26T05:43:23.906Z,9.74
2018-09-26T05:44:23.923Z,9.79
2018-09-26T05:45:23.939Z,9.76
2018-09-26T05:46:23.957Z,9.83
2018-09-26T05:47:23.975Z,9.74
2018-09-26T05:48:23.991Z,9.84
2018-09-26T05:49:24.010Z,9.77
2018-09-26T05:50:24.025Z,9.77
2018-09-26T05:51:24.045Z,9.87
2018-09-26T05:52:24.066Z,9.80
2018-09-26T05:53:24.098Z,9.82
2018-09-26T05:54:24.094Z,9.87
2018-09-26T05:55:24.114Z,9.87
2018-09-26T05:56:24.132Z,9.89
2018-09-26T05:57:24.149Z,9.89
2018-09-26T05:58:24.164Z,9.92
2018-09-26T05:59:24.184Z,9.94
2018-09-26T06:00:24.206Z,9.92
2018-09-26T06:01:24.218Z,9.92
2018-09-26T06:02:24.237Z,9.98
2018-09-26T06:03:24.253Z,9.97
2018-09-26T06:04:24.270Z,10.05
2018-09-26T06:05:24.328Z,10.10
2018-09-26T06:06:24.304Z,10.01
2018-09-26T06:07:24.353Z,9.95
2018-09-26T06:08:24.342Z,9.95
2018-09-26T06:09:24.368Z,9.99
2018-09-26T06:10:24.377Z,9.94
2018-09-26T06:11:24.396Z,10.10
2018-09-26T06:12:24.411Z,10.09
2018-09-26T06:13:24.428Z,10.13
2018-09-26T06:14:24.447Z,10.09
2018-09-26T06:15:24.464Z,10.15
2018-09-26T06:16:24.480Z,10.15
2018-09-26T06:17:24.498Z,10.22
2018-09-26T06:18:24.518Z,10.07
2018-09-26T06:19:24.535Z,10.15
2018-09-26T06:20:24.583Z,10.17
2018-09-26T06:21:24.571Z,10.16
2018-09-26T06:22:24.589Z,10.16
2018-09-26T06:23:24.604Z,10.16
2018-09-26T06:24:24.623Z,10.20
2018-09-26T06:25:24.640Z,10.17
2018-09-26T06:26:24.660Z,10.20
2018-09-26T06:27:24.678Z,10.19
2018-09-26T06:28:24.695Z,10.17
2018-09-26T06:29:24.714Z,10.17
2018-09-26T06:30:24.729Z,10.23
2018-09-26T06:31:24.749Z,10.28
2018-09-26T06:32:24.764Z,10.22
2018-09-26T06:33:24.784Z,10.33
2018-09-26T06:34:24.799Z,10.33
2018-09-26T06:35:24.818Z,10.33
2018-09-26T06:36:24.835Z,10.26
2018-09-26T06:37:24.856Z,10.31
2018-09-26T06:38:24.872Z,10.41
2018-09-26T06:39:24.890Z,10.40
2018-09-26T06:40:24.955Z,10.38
2018-09-26T06:41:24.924Z,10.35
2018-09-26T06:42:24.943Z,10.28
2018-09-26T06:43:24.962Z,10.37
2018-09-26T06:44:25.015Z,10.41
2018-09-26T06:45:25.001Z,10.34
2018-09-26T06:46:25.017Z,10.42
2018-09-26T06:47:25.091Z,10.46
2018-09-26T06:48:25.052Z,10.49
2018-09-26T06:49:25.070Z,10.40
2018-09-26T06:50:25.088Z,10.40
2018-09-26T06:51:25.103Z,10.40
2018-09-26T06:52:25.124Z,10.38
2018-09-26T06:53:25.140Z,10.49
2018-09-26T06:54:25.160Z,10.51
2018-09-26T06:55:25.379Z,10.34
2018-09-26T06:56:25.195Z,10.51
2018-09-26T06:57:25.214Z,10.49
2018-09-26T06:58:25.231Z,10.46
2018-09-26T06:59:25.252Z,10.60
2018-09-26T07:00:25.410Z,10.57
2018-09-26T07:01:25.284Z,10.60
2018-09-26T07:02:25.301Z,10.76
2018-09-26T07:03:25.321Z,10.71
2018-09-26T07:04:25.339Z,10.75
2018-09-26T07:05:25.390Z,10.68
2018-09-26T07:06:25.374Z,10.69
2018-09-26T07:07:25.392Z,10.75
2018-09-26T07:08:25.410Z,10.72
2018-09-26T07:09:25.431Z,10.74
2018-09-26T07:10:25.446Z,10.79
2018-09-26T07:11:25.465Z,10.89
2018-09-26T07:12:25.482Z,10.94
2018-09-26T07:13:25.504Z,10.93
2018-09-26T07:14:25.519Z,10.92
2018-09-26T07:15:25.538Z,10.92
2018-09-26T07:16:25.554Z,11.02
2018-09-26T07:17:25.574Z,10.93
2018-09-26T07:18:25.625Z,10.90
2018-09-26T07:19:25.618Z,10.96
2018-09-26T07:20:25.631Z,11.02
2018-09-26T07:21:25.651Z,10.93
2018-09-26T07:22:25.664Z,10.87
2018-09-26T07:23:25.683Z,10.90
2018-09-26T07:24:25.703Z,10.92
2018-09-26T07:25:25.755Z,10.93
2018-09-26T07:26:25.738Z,10.90
2018-09-26T07:27:25.757Z,10.93
2018-09-26T07:28:25.775Z,10.94
2018-09-26T07:29:25.795Z,11.04
2018-09-26T07:30:25.812Z,10.99
2018-09-26T07:31:25.839Z,11.08
2018-09-26T07:32:25.848Z,11.00
2018-09-26T07:33:25.869Z,11.10
2018-09-26T07:34:25.885Z,11.11
2018-09-26T07:35:25.906Z,11.12
2018-09-26T07:36:26.011Z,11.08
2018-09-26T07:37:25.940Z,11.23
2018-09-26T07:38:26.006Z,11.19
2018-09-26T07:39:25.977Z,11.15
2018-09-26T07:40:25.993Z,11.18
2018-09-26T07:41:26.014Z,11.25
2018-09-26T07:42:26.032Z,11.37
2018-09-26T07:43:26.050Z,11.35
2018-09-26T07:44:26.067Z,11.40
2018-09-26T07:45:26.133Z,11.35
2018-09-26T07:46:26.105Z,11.40
2018-09-26T07:47:26.122Z,11.33
2018-09-26T07:48:26.143Z,11.33
2018-09-26T07:49:26.160Z,11.37
2018-09-26T07:50:26.178Z,11.33
2018-09-26T07:51:26.197Z,11.43
2018-09-26T07:52:26.216Z,11.40
2018-09-26T07:53:26.237Z,11.43
2018-09-26T07:54:26.280Z,11.43
2018-09-26T07:55:26.270Z,11.41
2018-09-26T07:56:26.323Z,11.51
2018-09-26T07:57:26.310Z,11.48
2018-09-26T07:58:26.329Z,11.63
2018-09-26T07:59:26.349Z,11.66
2018-09-26T08:00:26.366Z,11.72
2018-09-26T08:01:26.385Z,11.73
2018-09-26T08:02:26.401Z,11.78
2018-09-26T08:03:26.760Z,11.83
2018-09-26T08:04:26.439Z,11.99
2018-09-26T08:05:26.456Z,11.99
2018-09-26T08:06:26.477Z,11.95
2018-09-26T08:07:26.493Z,12.00
2018-09-26T08:08:26.513Z,11.94
2018-09-26T08:09:26.531Z,12.04
2018-09-26T08:10:26.549Z,12.04
2018-09-26T08:11:26.685Z,12.09
2018-09-26T08:12:26.586Z,12.07
2018-09-26T08:13:26.608Z,12.12
2018-09-26T08:14:26.875Z,12.22
2018-09-26T08:15:26.643Z,12.25
2018-09-26T08:16:26.665Z,12.29
2018-09-26T08:17:26.682Z,12.42
2018-09-26T08:18:26.707Z,12.36
2018-09-26T08:19:26.722Z,12.39
2018-09-26T08:20:26.737Z,12.37
2018-09-26T08:21:26.757Z,12.42
2018-09-26T08:22:26.778Z,12.40
2018-09-26T08:23:26.797Z,12.43
2018-09-26T08:24:26.818Z,12.46
2018-09-26T08:25:26.832Z,12.49
2018-09-26T08:26:26.853Z,12.62
2018-09-26T08:27:26.870Z,12.64
2018-09-26T08:28:26.891Z,12.67
2018-09-26T08:29:26.909Z,12.70
2018-09-26T08:30:26.928Z,12.75
2018-09-26T08:31:26.950Z,12.65
2018-09-26T08:32:26.966Z,12.73
2018-09-26T08:33:27.271Z,12.72
2018-09-26T08:34:27.005Z,12.72
2018-09-26T08:35:27.023Z,12.72
2018-09-26T08:36:27.044Z,12.82
2018-09-26T08:37:27.090Z,12.91
2018-09-26T08:38:27.082Z,12.78
2018-09-26T08:39:27.100Z,12.93
2018-09-26T08:40:27.121Z,12.85
2018-09-26T08:41:27.140Z,12.80
2018-09-26T08:42:27.189Z,12.86
2018-09-26T08:43:27.179Z,12.94
2018-09-26T08:44:27.198Z,12.98
2018-09-26T08:45:27.217Z,13.00
2018-09-26T08:46:27.236Z,13.08
2018-09-26T08:47:27.255Z,13.01
2018-09-26T08:48:27.279Z,13.15
2018-09-26T08:49:27.292Z,13.05
2018-09-26T08:50:27.315Z,13.20
2018-09-26T08:51:27.330Z,13.28
2018-09-26T08:52:27.352Z,13.27
2018-09-26T08:53:27.372Z,13.39
2018-09-26T08:54:27.391Z,13.39
2018-09-26T08:55:27.409Z,13.52
2018-09-26T08:56:27.430Z,13.59
2018-09-26T08:57:27.449Z,13.62
2018-09-26T08:58:27.468Z,13.57
2018-09-26T08:59:27.488Z,13.65
2018-09-26T09:00:27.506Z,13.63
2018-09-26T09:01:27.526Z,13.78
2018-09-26T09:02:27.546Z,13.77
2018-09-26T09:03:27.568Z,13.90
2018-09-26T09:04:27.588Z,13.93
2018-09-26T09:05:27.634Z,13.89
2018-09-26T09:06:27.627Z,13.90
2018-09-26T09:07:27.644Z,14.05
2018-09-26T09:08:27.664Z,14.05
2018-09-26T09:09:27.686Z,14.11
2018-09-26T09:10:27.704Z,14.14
2018-09-26T09:11:27.747Z,14.14
2018-09-26T09:12:27.743Z,13.95
2018-09-26T09:13:27.968Z,14.08
2018-09-26T09:14:27.802Z,14.08
2018-09-26T09:15:27.803Z,14.08
2018-09-26T09:16:27.830Z,14.12
2018-09-26T09:17:27.847Z,14.11
2018-09-26T09:18:27.865Z,14.15
2018-09-26T09:19:27.883Z,14.26
2018-09-26T09:20:27.953Z,14.37
2018-09-26T09:21:27.926Z,14.33
2018-09-26T09:22:27.944Z,14.45
2018-09-26T09:23:27.963Z,14.48
2018-09-26T09:24:27.986Z,14.47
2018-09-26T09:25:28.007Z,14.48
2018-09-26T09:26:28.024Z,14.48
2018-09-26T09:27:28.088Z,14.53
2018-09-26T09:28:28.067Z,14.50
2018-09-26T09:29:28.087Z,14.48
2018-09-26T09:30:28.106Z,14.53
2018-09-26T09:31:28.128Z,14.51
2018-09-26T09:32:28.145Z,14.58
2018-09-26T09:33:28.169Z,14.63
2018-09-26T09:34:28.185Z,14.51
2018-09-26T09:35:28.208Z,14.63
2018-09-26T09:36:28.262Z,14.62
2018-09-26T09:37:28.248Z,14.58
2018-09-26T09:38:28.266Z,14.59
2018-09-26T09:39:28.289Z,14.65
2018-09-26T09:40:28.310Z,14.60
2018-09-26T09:41:28.365Z,14.73
2018-09-26T09:42:28.350Z,14.73
2018-09-26T09:43:28.372Z,14.60
2018-09-26T09:44:28.456Z,14.70
2018-09-26T09:45:28.413Z,14.70
2018-09-26T09:46:28.429Z,14.65
2018-09-26T09:47:28.450Z,14.69
2018-09-26T09:48:28.504Z,14.72
2018-09-26T09:49:28.492Z,14.73
2018-09-26T09:50:28.513Z,14.72
2018-09-26T09:51:28.576Z,14.77
2018-09-26T09:52:28.555Z,14.77
2018-09-26T09:53:28.576Z,14.77
2018-09-26T09:54:28.596Z,14.81
2018-09-26T09:55:28.614Z,14.85
2018-09-26T09:56:28.637Z,14.99
2018-09-26T09:57:28.656Z,15.10
2018-09-26T09:58:28.675Z,15.04
2018-09-26T09:59:28.695Z,15.07
2018-09-26T10:00:28.719Z,15.04
2018-09-26T10:01:28.739Z,14.96
2018-09-26T10:02:29.032Z,15.02
2018-09-26T10:03:28.777Z,15.15
2018-09-26T10:04:28.801Z,15.18
2018-09-26T10:05:28.831Z,15.21
2018-09-26T10:06:28.841Z,15.21
2018-09-26T10:07:28.860Z,15.29
2018-09-26T10:08:28.882Z,15.36
2018-09-26T10:09:28.904Z,15.40
2018-09-26T10:10:28.921Z,15.44
2018-09-26T10:11:28.942Z,15.54
2018-09-26T10:12:28.965Z,15.51
2018-09-26T10:13:28.985Z,15.52
2018-09-26T10:14:29.072Z,15.62
2018-09-26T10:15:29.025Z,15.57
2018-09-26T10:16:29.079Z,15.59
2018-09-26T10:17:29.139Z,15.46
2018-09-26T10:18:29.089Z,15.46
2018-09-26T10:19:29.109Z,15.52
2018-09-26T10:20:29.131Z,15.43
2018-09-26T10:21:29.149Z,15.49
2018-09-26T10:22:29.172Z,15.51
2018-09-26T10:23:29.199Z,15.49
2018-09-26T10:24:29.215Z,15.55
2018-09-26T10:25:29.238Z,15.54
2018-09-26T10:26:29.253Z,15.61
2018-09-26T10:27:29.276Z,15.75
2018-09-26T10:28:29.299Z,15.67
2018-09-26T10:29:29.319Z,15.65
2018-09-26T10:30:29.488Z,15.75
2018-09-26T10:31:29.359Z,15.73
2018-09-26T10:32:29.382Z,15.77
2018-09-26T10:33:29.430Z,15.79
2018-09-26T10:34:29.423Z,15.82
2018-09-26T10:35:29.444Z,15.86
2018-09-26T10:36:29.464Z,15.82
2018-09-26T10:37:29.483Z,15.80
2018-09-26T10:38:29.506Z,15.75
2018-09-26T10:39:29.527Z,15.70
2018-09-26T10:40:29.576Z,15.70
2018-09-26T10:41:29.570Z,15.86
2018-09-26T10:42:29.591Z,15.83
2018-09-26T10:43:29.612Z,15.97
2018-09-26T10:44:29.639Z,15.91
2018-09-26T10:45:29.656Z,15.88
2018-09-26T10:46:29.713Z,15.98
2018-09-26T10:47:29.695Z,16.00
2018-09-26T10:48:29.714Z,16.08
2018-09-26T10:49:29.736Z,16.08
2018-09-26T10:50:29.759Z,16.05
2018-09-26T10:51:29.777Z,16.01
2018-09-26T10:52:29.802Z,16.12
2018-09-26T10:53:29.820Z,16.12
2018-09-26T10:54:29.842Z,16.16
2018-09-26T10:55:29.867Z,16.15
2018-09-26T10:56:29.987Z,16.17
2018-09-26T10:57:29.906Z,16.21
2018-09-26T10:58:29.925Z,16.16
2018-09-26T10:59:29.947Z,16.26
2018-09-26T11:00:30.003Z,16.13
2018-09-26T11:01:29.993Z,16.15
2018-09-26T11:02:30.053Z,16.16
2018-09-26T11:03:30.034Z,16.08
2018-09-26T11:04:30.058Z,15.97
2018-09-26T11:05:30.073Z,16.02
2018-09-26T11:06:30.106Z,16.09
2018-09-26T11:07:30.119Z,16.08
2018-09-26T11:08:30.139Z,16.28
2018-09-26T11:09:30.159Z,16.15
2018-09-26T11:10:30.182Z,16.24
2018-09-26T11:11:30.202Z,16.28
2018-09-26T11:12:30.227Z,16.36
2018-09-26T11:13:30.244Z,16.32
2018-09-26T11:14:30.263Z,16.29
2018-09-26T11:15:30.287Z,16.24
2018-09-26T11:16:30.308Z,16.24
2018-09-26T11:17:30.332Z,16.23
2018-09-26T11:18:30.648Z,16.33
2018-09-26T11:19:30.371Z,16.33
2018-09-26T11:20:30.390Z,16.32
2018-09-26T11:21:30.418Z,16.29
2018-09-26T11:22:30.433Z,16.28
2018-09-26T11:23:30.455Z,16.31
2018-09-26T11:24:30.505Z,16.28
2018-09-26T11:25:30.500Z,16.24
2018-09-26T11:26:30.579Z,16.24
2018-09-26T11:27:30.542Z,16.32
2018-09-26T11:28:30.560Z,16.36
2018-09-26T11:29:30.584Z,16.32
2018-09-26T11:30:30.604Z,16.36
2018-09-26T11:31:30.625Z,16.31
2018-09-26T11:32:30.651Z,16.41
2018-09-26T11:33:30.873Z,16.47
2018-09-26T11:34:30.688Z,16.57
2018-09-26T11:35:30.710Z,16.58
2018-09-26T11:36:30.732Z,16.56
2018-09-26T11:37:30.753Z,16.49
2018-09-26T11:38:30.775Z,16.51
2018-09-26T11:39:30.795Z,16.65
2018-09-26T11:40:30.817Z,16.58
2018-09-26T11:41:30.837Z,16.58
2018-09-26T11:42:30.858Z,16.60
2018-09-26T11:43:30.881Z,16.58
2018-09-26T11:44:30.908Z,16.64
2018-09-26T11:45:30.926Z,16.71
2018-09-26T11:46:30.944Z,16.81
2018-09-26T11:47:30.965Z,16.94
2018-09-26T11:48:30.986Z,16.91
2018-09-26T11:49:31.007Z,16.96
2018-09-26T11:50:31.029Z,16.91
2018-09-26T11:51:31.052Z,16.96
2018-09-26T11:52:31.077Z,16.93
2018-09-26T11:53:31.093Z,16.93
2018-09-26T11:54:31.115Z,16.91
2018-09-26T11:55:31.138Z,17.08
2018-09-26T11:56:31.225Z,17.11
2018-09-26T11:57:31.180Z,17.12
2018-09-26T11:58:31.200Z,17.22
2018-09-26T11:59:31.229Z,17.26
2018-09-26T12:00:31.242Z,17.31
2018-09-26T12:01:31.264Z,17.22
2018-09-26T12:02:31.354Z,17.14
2018-09-26T12:03:31.308Z,17.16
2018-09-26T12:04:31.331Z,17.14
2018-09-26T12:05:31.351Z,17.11
2018-09-26T12:06:31.373Z,17.06
2018-09-26T12:07:31.474Z,17.12
2018-09-26T12:08:31.418Z,17.11
2018-09-26T12:09:31.440Z,17.12
2018-09-26T12:10:31.460Z,17.08
2018-09-26T12:11:31.482Z,17.08
2018-09-26T12:12:31.501Z,17.12
2018-09-26T12:13:31.553Z,17.23
2018-09-26T12:14:31.546Z,17.20
2018-09-26T12:15:31.566Z,17.19
2018-09-26T12:16:31.589Z,17.26
2018-09-26T12:17:31.610Z,17.31
2018-09-26T12:18:31.631Z,17.46
2018-09-26T12:19:31.651Z,17.44
2018-09-26T12:20:31.673Z,17.36
2018-09-26T12:21:31.704Z,17.36
2018-09-26T12:22:31.798Z,17.54
2018-09-26T12:23:31.745Z,17.51
2018-09-26T12:24:31.761Z,17.51
2018-09-26T12:25:31.784Z,17.56
2018-09-26T12:26:31.802Z,17.57
2018-09-26T12:27:31.853Z,17.63
2018-09-26T12:28:31.848Z,17.60
2018-09-26T12:29:31.871Z,17.74
2018-09-26T12:30:31.889Z,17.72
2018-09-26T12:31:31.911Z,17.72
2018-09-26T12:32:31.973Z,17.76
2018-09-26T12:33:31.956Z,17.72
2018-09-26T12:34:31.977Z,17.71
2018-09-26T12:35:31.999Z,17.76
2018-09-26T12:36:32.022Z,17.76
2018-09-26T12:37:32.042Z,17.78
2018-09-26T12:38:32.063Z,17.74
2018-09-26T12:39:32.085Z,17.71
2018-09-26T12:40:32.108Z,17.76
2018-09-26T12:41:32.151Z,17.72
2018-09-26T12:42:32.165Z,17.74
2018-09-26T12:43:32.174Z,17.80
2018-09-26T12:44:32.445Z,17.76
2018-09-26T12:45:32.217Z,17.92
2018-09-26T12:46:32.237Z,17.90
2018-09-26T12:47:32.262Z,17.98
2018-09-26T12:48:32.324Z,18.08
2018-09-26T12:49:32.309Z,18.03
2018-09-26T12:50:32.327Z,18.05
2018-09-26T12:51:32.348Z,18.08
2018-09-26T12:52:32.370Z,18.13
2018-09-26T12:53:32.454Z,18.25
2018-09-26T12:54:32.446Z,18.35
2018-09-26T12:55:32.436Z,18.44
2018-09-26T12:56:32.459Z,18.52
2018-09-26T12:57:32.486Z,18.53
2018-09-26T12:58:32.501Z,18.41
2018-09-26T12:59:32.525Z,18.44
2018-09-26T13:00:32.683Z,18.45
2018-09-26T13:01:32.571Z,18.47
2018-09-26T13:02:32.596Z,18.41
2018-09-26T13:03:32.614Z,18.40
2018-09-26T13:04:32.637Z,18.38
2018-09-26T13:05:32.657Z,18.29